Time;durP1;ratioP1;P1;durP2;ratioP2;P2;SDS_P1;SDS_P2;PMS_P1;PMS_P2;Temp;Humidity;BMP_temperature;BMP_pressure;BME280_temperature;BME280_humidity;BME280_pressure;Samples;Min_cycle;Max_cycle;Signal;HPM_P1;HPM_P2
2021/06/28 00:00:20;;;;;;;3.73;2.70;;;;;;;22.34;63.19;96539.31;5057874;28;20181;-68
2021/06/28 00:02:45;;;;;;;2.80;2.40;;;;;;;22.10;63.60;96534.16;5050109;28;20299;-68
2021/06/28 00:05:13;;;;;;;2.80;2.60;;;;;;;22.04;63.99;96545.81;5051679;28;21031;-70
2021/06/28 00:07:40;;;;;;;2.90;2.50;;;;;;;22.00;63.97;96542.00;5053571;28;20175;-69
2021/06/28 00:10:06;;;;;;;3.10;2.50;;;;;;;21.99;64.19;96537.72;5057718;28;20430;-68
2021/06/28 00:12:32;;;;;;;5.40;2.97;;;;;;;21.89;64.72;96533.00;5040087;28;20438;-68
2021/06/28 00:14:58;;;;;;;3.20;2.90;;;;;;;21.79;64.79;96533.66;5056580;28;20700;-69
2021/06/28 00:17:24;;;;;;;2.70;2.50;;;;;;;21.53;65.81;96540.34;5053605;28;20452;-68
2021/06/28 00:19:50;;;;;;;2.60;2.50;;;;;;;21.41;66.41;96538.56;5053123;28;20259;-69
2021/06/28 00:22:16;;;;;;;2.87;2.57;;;;;;;21.39;66.37;96529.19;5049983;28;20417;-69
2021/06/28 00:24:42;;;;;;;2.57;2.40;;;;;;;21.42;66.62;96542.03;5052300;28;20473;-69
2021/06/28 00:27:08;;;;;;;3.53;2.80;;;;;;;21.35;66.70;96539.50;5050801;28;20498;-69
2021/06/28 00:29:33;;;;;;;3.30;2.83;;;;;;;21.27;67.19;96540.69;5037247;28;20425;-69
2021/06/28 00:31:59;;;;;;;3.93;3.00;;;;;;;21.26;67.56;96547.06;5036948;28;20423;-67
2021/06/28 00:34:25;;;;;;;4.80;3.03;;;;;;;21.24;67.74;96545.66;5049766;28;20195;-66
2021/06/28 00:36:50;;;;;;;6.67;2.97;;;;;;;21.36;67.52;96541.09;5052493;28;20174;-68
2021/06/28 00:39:16;;;;;;;3.20;3.00;;;;;;;21.19;68.52;96541.06;5035989;28;20196;-68
2021/06/28 00:41:42;;;;;;;6.47;3.17;;;;;;;21.29;68.07;96533.28;5036743;28;20198;-71
2021/06/28 00:44:07;;;;;;;3.30;3.00;;;;;;;21.12;69.34;96530.53;5016914;28;20256;-68
2021/06/28 00:46:34;;;;;;;3.50;3.20;;;;;;;21.24;69.16;96527.84;5051301;28;20222;-70
2021/06/28 00:49:00;;;;;;;4.20;3.20;;;;;;;21.05;69.17;96523.72;5052284;28;20421;-69
2021/06/28 00:51:25;;;;;;;4.20;3.10;;;;;;;21.31;68.56;96530.38;5051667;28;20183;-69
2021/06/28 00:53:51;;;;;;;3.53;2.77;;;;;;;21.31;67.92;96520.50;5051608;28;20209;-68
2021/06/28 00:56:17;;;;;;;4.33;2.80;;;;;;;21.51;67.39;96516.63;5050675;28;20182;-67
2021/06/28 00:58:44;;;;;;;2.80;2.60;;;;;;;21.48;66.08;96517.09;5045587;28;20940;-69
2021/06/28 01:01:11;;;;;;;3.03;2.80;;;;;;;21.50;65.98;96515.00;5047335;28;20187;-69
2021/06/28 01:03:37;;;;;;;4.03;2.73;;;;;;;21.65;65.27;96517.13;5033838;28;20445;-69
2021/06/28 01:06:06;;;;;;;2.60;2.40;;;;;;;21.63;64.81;96514.72;5051234;28;20500;-69
2021/06/28 01:08:32;;;;;;;3.20;2.90;;;;;;;21.96;64.07;96509.66;5033321;28;20508;-68
2021/06/28 01:10:57;;;;;;;2.50;2.30;;;;;;;21.89;63.12;96501.81;5050387;28;20987;-68
2021/06/28 01:13:25;;;;;;;2.43;2.33;;;;;;;22.09;62.80;96506.69;5032838;28;20236;-69
2021/06/28 01:15:52;;;;;;;2.77;2.57;;;;;;;21.93;63.19;96502.16;5051219;28;20248;-69
2021/06/28 01:18:18;;;;;;;2.80;2.60;;;;;;;21.92;63.81;96506.69;5050848;28;20439;-69
2021/06/28 01:20:44;;;;;;;7.33;2.63;;;;;;;22.07;63.35;96500.78;5050079;28;20463;-71
2021/06/28 01:23:42;;;;;;;2.77;2.57;;;;;;;22.31;63.02;96497.09;5048020;28;20899;-69
2021/06/28 01:26:09;;;;;;;2.63;2.43;;;;;;;22.28;62.02;96490.38;5048443;28;20344;-68
2021/06/28 01:28:35;;;;;;;2.57;2.37;;;;;;;22.40;62.07;96496.44;5045643;28;20422;-69
2021/06/28 01:31:03;;;;;;;2.47;2.33;;;;;;;22.46;62.00;96489.34;5040938;28;20733;-69
2021/06/28 01:33:29;;;;;;;2.80;2.60;;;;;;;22.47;61.49;96490.16;5048290;28;20446;-69
2021/06/28 01:35:55;;;;;;;2.20;2.10;;;;;;;22.53;61.41;96489.97;5048523;28;20866;-69
2021/06/28 01:38:21;;;;;;;3.87;2.53;;;;;;;22.53;61.33;96489.97;5046983;28;20195;-67
2021/06/28 01:40:46;;;;;;;2.77;2.57;;;;;;;22.53;61.51;96489.97;5048256;28;20952;-68
2021/06/28 01:43:12;;;;;;;2.40;2.30;;;;;;;22.41;62.23;96489.28;5031413;28;20560;-68
2021/06/28 01:45:38;;;;;;;2.37;2.10;;;;;;;22.51;61.99;96485.94;5047698;28;20219;-67
2021/06/28 01:48:05;;;;;;;2.50;2.30;;;;;;;22.49;61.99;96478.19;5047099;28;20931;-67
2021/06/28 01:50:32;;;;;;;2.93;2.73;;;;;;;22.40;61.77;96474.28;5048224;28;20456;-68
2021/06/28 01:52:59;;;;;;;2.40;2.30;;;;;;;22.54;61.32;96477.44;5048215;28;20449;-67
2021/06/28 01:55:25;;;;;;;2.67;2.47;;;;;;;22.62;61.34;96486.88;5047830;28;20959;-68
2021/06/28 01:57:54;;;;;;;2.50;2.30;;;;;;;22.59;61.52;96488.19;5047772;28;20484;-69
2021/06/28 02:00:23;;;;;;;2.90;2.70;;;;;;;22.58;62.21;96489.25;5038185;28;21133;-69
2021/06/28 02:03:14;;;;;;;4.00;2.30;;;;;;;22.60;61.87;96495.16;5050613;28;20456;-69
2021/06/28 02:05:42;;;;;;;3.13;2.93;;;;;;;22.49;62.07;96478.19;5044351;28;20465;-69
2021/06/28 02:08:09;;;;;;;2.47;2.37;;;;;;;22.35;63.40;96472.38;5049539;28;20433;-68
2021/06/28 02:10:35;;;;;;;2.80;2.60;;;;;;;22.29;62.80;96469.88;5052399;28;20741;-69
2021/06/28 02:13:01;;;;;;;3.70;2.73;;;;;;;22.26;63.39;96463.13;5054391;28;20904;-69
2021/06/28 02:15:29;;;;;;;4.13;3.07;;;;;;;22.24;63.21;96465.28;5054350;28;20429;-68
2021/06/28 02:17:56;;;;;;;3.17;2.97;;;;;;;22.40;63.04;96463.63;5054504;28;20261;-69
2021/06/28 02:20:22;;;;;;;3.30;3.00;;;;;;;22.31;63.46;96465.06;5053352;28;20821;-70
2021/06/28 02:22:49;;;;;;;5.37;3.00;;;;;;;22.39;63.08;96462.78;5051017;28;20519;-68
2021/06/28 02:25:15;;;;;;;4.50;2.93;;;;;;;22.23;63.68;96467.13;5053574;28;20214;-68
2021/06/28 02:27:41;;;;;;;3.03;2.70;;;;;;;22.35;63.65;96464.34;5054465;28;20426;-69
2021/06/28 02:30:10;;;;;;;3.33;2.90;;;;;;;22.31;63.70;96465.06;5044797;28;20558;-68
2021/06/28 02:32:36;;;;;;;3.00;2.80;;;;;;;22.00;65.42;96472.63;5054231;28;20466;-69
2021/06/28 02:35:04;;;;;;;2.90;2.63;;;;;;;21.49;67.27;96476.84;5053401;28;20476;-69
2021/06/28 02:37:29;;;;;;;3.23;2.93;;;;;;;21.27;67.88;96478.59;5053866;28;20257;-69
2021/06/28 02:39:55;;;;;;;3.60;3.30;;;;;;;21.44;67.58;96484.78;5050341;28;20877;-69
2021/06/28 02:42:21;;;;;;;3.30;2.83;;;;;;;21.59;67.48;96478.94;5053753;28;20270;-68
2021/06/28 02:44:46;;;;;;;3.23;3.03;;;;;;;21.42;67.99;96491.41;5053596;28;20214;-67
2021/06/28 02:47:12;;;;;;;5.30;3.60;;;;;;;21.11;69.16;96491.63;5053842;28;20183;-68
2021/06/28 02:49:37;;;;;;;4.20;3.43;;;;;;;21.13;69.47;96492.19;5053857;28;20194;-69
2021/06/28 02:52:04;;;;;;;4.30;3.43;;;;;;;21.28;68.91;96483.69;5053205;28;20248;-68
2021/06/28 02:54:30;;;;;;;4.87;3.63;;;;;;;21.09;69.27;96480.41;5053202;28;20233;-68
2021/06/28 02:56:56;;;;;;;4.60;3.80;;;;;;;21.18;69.21;96481.66;5052387;28;20541;-67
2021/06/28 02:59:21;;;;;;;3.77;3.50;;;;;;;21.25;68.92;96484.16;5027396;28;20429;-69
2021/06/28 03:01:47;;;;;;;4.57;3.63;;;;;;;21.31;69.11;96488.53;5053629;28;20240;-69
2021/06/28 03:04:13;;;;;;;4.50;3.70;;;;;;;21.61;67.44;96500.03;5053115;28;20761;-68
2021/06/28 03:06:39;;;;;;;5.17;3.50;;;;;;;21.78;66.89;96500.03;5053268;28;20198;-69
2021/06/28 03:09:04;;;;;;;3.10;2.90;;;;;;;21.83;66.26;96513.44;5052970;28;20195;-68
2021/06/28 03:11:30;;;;;;;3.80;3.50;;;;;;;21.91;65.98;96521.06;5053453;28;20183;-68
2021/06/28 03:13:55;;;;;;;3.63;3.33;;;;;;;21.46;67.98;96512.00;5052291;28;20712;-67
2021/06/28 03:16:21;;;;;;;3.67;3.00;;;;;;;21.75;66.98;96508.53;5052641;28;20179;-69
2021/06/28 03:18:47;;;;;;;4.53;3.10;;;;;;;21.90;66.23;96508.78;5052697;28;20638;-69
2021/06/28 03:21:13;;;;;;;3.73;3.43;;;;;;;21.58;67.11;96506.59;5049162;28;20183;-69
2021/06/28 03:23:40;;;;;;;3.33;3.13;;;;;;;21.64;66.88;96512.84;5052713;28;20446;-69
2021/06/28 03:26:06;;;;;;;3.73;3.00;;;;;;;21.91;65.85;96521.06;5036694;28;20220;-68
2021/06/28 03:28:33;;;;;;;3.10;2.80;;;;;;;22.03;65.81;96517.50;5051691;28;20790;-69
2021/06/28 03:30:58;;;;;;;3.00;2.70;;;;;;;22.09;65.46;96509.34;5045879;28;20194;-68
2021/06/28 03:33:24;;;;;;;5.23;3.20;;;;;;;22.05;65.24;96510.88;5051510;28;20442;-69
2021/06/28 03:35:50;;;;;;;8.20;2.90;;;;;;;22.17;65.07;96507.31;5052866;28;20214;-69
2021/06/28 03:38:17;;;;;;;4.00;3.30;;;;;;;22.07;64.92;96482.09;5051674;28;20244;-69
2021/06/28 03:40:43;;;;;;;3.30;3.00;;;;;;;21.94;64.97;96456.53;5048801;28;20511;-69
2021/06/28 03:43:10;;;;;;;3.60;2.87;;;;;;;21.74;65.87;96445.56;5035148;28;20477;-69
2021/06/28 03:45:36;;;;;;;2.77;2.57;;;;;;;21.96;64.66;96452.84;5059732;28;20894;-69
2021/06/28 03:48:03;;;;;;;2.80;2.60;;;;;;;21.83;64.89;96460.09;5060018;28;20633;-69
2021/06/28 03:50:29;;;;;;;3.07;2.83;;;;;;;22.07;64.12;96470.59;5057555;28;20426;-69
2021/06/28 03:52:54;;;;;;;3.80;2.80;;;;;;;22.14;63.71;96476.59;5067007;28;20556;-68
2021/06/28 03:55:20;;;;;;;3.07;2.63;;;;;;;22.28;63.44;96471.72;5053106;28;20182;-68
2021/06/28 03:57:46;;;;;;;3.20;2.80;;;;;;;22.36;62.78;96467.81;5053553;28;20187;-67
2021/06/28 04:00:14;;;;;;;3.00;2.80;;;;;;;22.36;62.89;96473.16;5057586;28;20191;-68
2021/06/28 04:02:42;;;;;;;2.70;2.50;;;;;;;22.34;63.13;96480.59;5070519;28;20441;-68
2021/06/28 04:05:10;;;;;;;3.27;3.03;;;;;;;22.34;62.75;96473.41;5066347;28;20479;-69
2021/06/28 04:07:36;;;;;;;4.53;3.03;;;;;;;22.40;62.88;96456.41;5055155;28;20446;-69
2021/06/28 04:10:04;;;;;;;3.10;2.90;;;;;;;22.43;62.54;96462.34;5045421;28;20425;-68
2021/06/28 04:12:30;;;;;;;3.47;3.03;;;;;;;22.54;62.46;96472.91;5051130;28;20205;-67
2021/06/28 04:14:55;;;;;;;3.30;3.00;;;;;;;22.58;62.31;96472.41;5051695;28;20916;-67
2021/06/28 04:17:21;;;;;;;2.87;2.60;;;;;;;22.61;62.30;96471.91;5052066;28;20661;-68
2021/06/28 04:19:46;;;;;;;2.80;2.60;;;;;;;22.65;62.15;96476.50;5047984;28;20252;-69
2021/06/28 04:22:12;;;;;;;2.97;2.77;;;;;;;22.67;61.99;96478.94;5049376;28;20281;-68
2021/06/28 04:24:38;;;;;;;3.50;3.00;;;;;;;22.72;61.65;96462.97;5035205;28;20199;-68
2021/06/28 04:27:03;;;;;;;3.13;2.83;;;;;;;22.58;62.02;96451.03;5051156;28;20187;-68
2021/06/28 04:29:29;;;;;;;4.23;3.93;;;;;;;22.55;61.88;96447.84;5050141;28;20605;-68
2021/06/28 04:31:55;;;;;;;2.80;2.50;;;;;;;22.45;62.72;96450.34;5052159;28;20197;-68
2021/06/28 04:34:20;;;;;;;5.73;2.90;;;;;;;22.43;62.88;96452.47;5050149;28;20245;-69
2021/06/28 04:36:46;;;;;;;3.20;2.30;;;;;;;22.49;62.70;96462.16;5051566;28;20187;-67
2021/06/28 04:39:11;;;;;;;5.43;3.03;;;;;;;22.43;63.34;96457.78;5050830;28;20234;-67
2021/06/28 04:41:37;;;;;;;5.03;3.40;;;;;;;22.22;64.92;96468.16;5051650;28;20218;-68
2021/06/28 04:44:03;;;;;;;3.57;3.23;;;;;;;22.36;64.18;96475.81;5049739;28;20211;-68
2021/06/28 04:46:29;;;;;;;3.57;3.27;;;;;;;22.36;64.16;96475.81;5051237;28;20627;-69
2021/06/28 04:48:55;;;;;;;4.23;3.93;;;;;;;22.40;63.82;96482.31;5048435;28;20451;-70
2021/06/28 04:51:20;;;;;;;3.93;3.60;;;;;;;22.43;63.81;96489.81;5049443;28;20239;-67
2021/06/28 04:53:46;;;;;;;3.40;3.10;;;;;;;22.44;63.69;96482.63;5049615;28;20215;-67
2021/06/28 04:56:11;;;;;;;4.20;3.70;;;;;;;22.44;63.75;96485.31;5051230;28;20193;-67
2021/06/28 04:58:37;;;;;;;6.57;3.80;;;;;;;22.34;64.04;96485.94;5050632;28;20245;-69
2021/06/28 05:01:03;;;;;;;4.00;3.70;;;;;;;22.37;64.21;96486.25;5050575;28;20211;-67
2021/06/28 05:03:28;;;;;;;5.07;3.80;;;;;;;22.53;63.96;96483.81;5050280;28;20199;-68
2021/06/28 05:05:54;;;;;;;8.40;3.90;;;;;;;22.62;63.85;96489.56;5051014;28;20215;-68
2021/06/28 05:08:20;;;;;;;7.40;4.03;;;;;;;22.37;64.24;96488.91;5049830;28;20218;-67
2021/06/28 05:10:45;;;;;;;4.17;3.70;;;;;;;22.53;63.81;96484.66;5050845;28;20289;-67
2021/06/28 05:13:11;;;;;;;4.23;3.57;;;;;;;22.62;63.87;96489.56;5050349;28;20280;-68
2021/06/28 05:15:36;;;;;;;4.80;4.10;;;;;;;22.84;63.35;96490.38;5050969;28;20237;-68
2021/06/28 05:18:02;;;;;;;7.03;4.07;;;;;;;22.52;63.96;96491.03;5051379;28;20280;-66
2021/06/28 05:20:28;;;;;;;4.27;3.77;;;;;;;22.72;63.35;96484.34;5046489;28;20187;-67
2021/06/28 05:22:53;;;;;;;3.87;3.57;;;;;;;22.99;62.64;96491.59;5049014;28;20252;-67
2021/06/28 05:25:19;;;;;;;3.90;3.60;;;;;;;23.20;61.74;96494.53;5050198;28;20218;-68
2021/06/28 05:27:45;;;;;;;5.80;3.53;;;;;;;23.50;61.27;96480.69;5049794;28;20673;-69
2021/06/28 05:30:12;;;;;;;3.33;3.10;;;;;;;23.58;60.40;96488.25;5050665;28;20197;-69
2021/06/28 05:32:38;;;;;;;6.13;2.83;;;;;;;23.77;59.54;96486.00;5050897;28;20210;-69
2021/06/28 05:35:06;;;;;;;4.43;2.80;;;;;;;24.01;58.89;96484.84;5050510;28;20970;-67
2021/06/28 05:37:31;;;;;;;3.10;2.67;;;;;;;24.16;57.74;96476.16;5049667;28;20187;-67
2021/06/28 05:39:57;;;;;;;3.00;2.70;;;;;;;24.16;56.54;96471.59;5049137;28;21015;-68
2021/06/28 05:42:23;;;;;;;2.83;2.63;;;;;;;23.89;57.33;96479.66;5050094;28;20258;-67
2021/06/28 05:44:49;;;;;;;5.63;3.50;;;;;;;24.02;57.31;96484.63;5051105;28;20490;-67
2021/06/28 05:47:16;;;;;;;13.07;5.43;;;;;;;23.99;57.23;96477.09;5053540;28;20645;-69
2021/06/28 05:49:43;;;;;;;5.93;3.50;;;;;;;24.05;56.24;96473.41;5045154;28;20283;-69
2021/06/28 05:52:10;;;;;;;26.30;7.60;;;;;;;24.34;55.82;96473.03;5053255;28;20459;-68
2021/06/28 05:54:36;;;;;;;20.93;6.17;;;;;;;24.46;55.92;96474.72;5053148;28;20465;-68
2021/06/28 05:57:01;;;;;;;3.07;2.47;;;;;;;24.42;55.05;96481.66;5052930;28;20463;-67
2021/06/28 05:59:27;;;;;;;18.53;6.07;;;;;;;24.14;56.11;96475.59;5047766;28;20429;-68
2021/06/28 06:01:52;;;;;;;19.67;6.47;;;;;;;24.73;54.16;96471.13;5054382;28;20268;-68
2021/06/28 06:04:18;;;;;;;9.60;4.40;;;;;;;24.46;54.95;96474.72;5053202;28;20225;-68
2021/06/28 06:06:44;;;;;;;7.20;2.97;;;;;;;24.88;53.01;96473.09;5053979;28;20654;-67
2021/06/28 06:09:10;;;;;;;8.13;3.83;;;;;;;25.14;52.26;96469.38;5054247;28;20187;-68
2021/06/28 06:11:36;;;;;;;4.80;2.20;;;;;;;25.63;51.30;96474.59;5053990;28;20653;-68
2021/06/28 06:14:03;;;;;;;2.43;2.20;;;;;;;25.75;51.10;96473.28;5053405;28;20441;-69
2021/06/28 06:16:28;;;;;;;5.07;2.00;;;;;;;26.10;50.73;96476.22;5051388;28;20440;-69
2021/06/28 06:18:54;;;;;;;3.90;2.43;;;;;;;25.19;53.07;96479.34;5049841;28;20904;-69
2021/06/28 06:21:23;;;;;;;2.10;1.90;;;;;;;25.87;50.79;96475.69;5051222;28;21535;-69
2021/06/28 06:23:49;;;;;;;2.77;2.00;;;;;;;26.02;50.45;96460.66;5052281;28;20206;-69
2021/06/28 06:26:15;;;;;;;3.50;2.20;;;;;;;26.00;50.28;96465.47;5053083;28;20847;-69
2021/06/28 06:28:41;;;;;;;2.53;2.20;;;;;;;26.21;49.28;96469.75;5049928;28;20425;-68
2021/06/28 06:31:06;;;;;;;4.33;2.00;;;;;;;26.04;50.26;96470.03;5052747;28;20194;-68
2021/06/28 06:33:32;;;;;;;3.60;2.20;;;;;;;26.33;48.46;96471.38;5046190;28;20708;-69
2021/06/28 06:35:58;;;;;;;3.80;1.87;;;;;;;26.63;47.51;96472.34;5053878;28;20203;-68
2021/06/28 06:38:23;;;;;;;3.80;2.37;;;;;;;26.65;46.65;96476.38;5052636;28;20179;-69
2021/06/28 06:40:49;;;;;;;3.97;1.90;;;;;;;26.08;48.34;96483.75;5053425;28;20560;-69
2021/06/28 06:43:16;;;;;;;3.33;1.87;;;;;;;26.74;46.48;96471.25;5052286;28;20215;-69
2021/06/28 06:45:42;;;;;;;2.20;2.00;;;;;;;27.22;45.75;96478.84;5052060;28;20465;-69
2021/06/28 06:48:08;;;;;;;2.97;2.37;;;;;;;27.59;45.65;96491.03;5052368;28;20434;-69
2021/06/28 06:50:33;;;;;;;2.43;1.93;;;;;;;27.84;45.38;96485.75;5053929;28;20413;-69
2021/06/28 06:52:59;;;;;;;6.20;1.90;;;;;;;27.93;44.88;96486.72;5053571;28;20211;-69
2021/06/28 06:55:26;;;;;;;2.80;2.03;;;;;;;28.10;44.48;96485.56;5051476;28;20257;-69
2021/06/28 06:57:52;;;;;;;2.67;1.97;;;;;;;28.09;44.38;96498.19;5052508;28;20213;-69
2021/06/28 07:00:20;;;;;;;2.60;2.33;;;;;;;28.13;44.55;96501.94;5051115;28;20834;-70
2021/06/28 07:02:46;;;;;;;2.23;1.97;;;;;;;28.61;43.53;96506.56;5047109;28;20446;-74
2021/06/28 07:05:13;;;;;;;2.27;2.17;;;;;;;28.09;46.78;96508.97;5051161;28;20858;-68
2021/06/28 07:07:40;;;;;;;2.57;2.37;;;;;;;27.67;47.61;96508.47;5052384;28;20183;-67
2021/06/28 07:10:14;;;;;;;3.07;2.07;;;;;;;28.03;46.67;96507.41;5051772;28;20505;-68
2021/06/28 07:12:40;;;;;;;3.30;3.10;;;;;;;28.01;45.80;96507.66;5053280;28;20568;-68
2021/06/28 07:15:07;;;;;;;2.10;1.90;;;;;;;27.99;44.40;96509.81;5052677;28;20776;-67
2021/06/28 07:17:33;;;;;;;3.13;1.90;;;;;;;27.99;45.40;96517.91;5053534;28;20827;-68
2021/06/28 07:19:59;;;;;;;6.17;2.27;;;;;;;27.75;45.57;96521.31;5053116;28;20494;-68
2021/06/28 07:22:25;;;;;;;2.57;1.97;;;;;;;27.86;45.88;96513.16;5042249;28;20179;-68
2021/06/28 07:24:51;;;;;;;2.37;2.17;;;;;;;27.63;45.69;96512.78;5052558;28;20211;-69
2021/06/28 07:27:16;;;;;;;5.13;1.93;;;;;;;27.78;45.83;96516.47;5052549;28;20498;-69
2021/06/28 07:29:42;;;;;;;2.50;2.30;;;;;;;28.17;44.77;96504.88;5049623;28;20544;-69
2021/06/28 07:32:08;;;;;;;3.53;2.00;;;;;;;28.52;44.08;96510.97;5053056;28;20178;-69
2021/06/28 07:34:33;;;;;;;4.03;2.23;;;;;;;28.63;43.41;96511.69;5053307;28;20646;-69
2021/06/28 07:36:59;;;;;;;2.60;2.40;;;;;;;28.81;43.03;96508.25;5054709;28;20210;-69
2021/06/28 07:39:26;;;;;;;4.50;2.30;;;;;;;28.70;43.96;96522.13;5060409;28;20194;-69
2021/06/28 07:41:52;;;;;;;5.70;1.93;;;;;;;28.82;43.28;96519.88;5063328;28;20266;-68
2021/06/28 07:44:21;;;;;;;4.40;1.90;;;;;;;29.05;43.90;96528.22;5056593;28;20458;-69
2021/06/28 07:46:47;;;;;;;2.20;1.93;;;;;;;29.03;42.95;96519.63;5054095;28;20187;-69
2021/06/28 07:49:13;;;;;;;3.30;2.10;;;;;;;28.59;42.23;96522.25;5062692;28;20433;-68
2021/06/28 07:51:38;;;;;;;3.83;1.90;;;;;;;28.41;42.91;96531.84;5067783;28;20190;-69
2021/06/28 07:54:08;;;;;;;3.20;2.50;;;;;;;28.57;41.95;96535.19;5068726;28;20199;-68
2021/06/28 07:56:34;;;;;;;1.90;1.80;;;;;;;28.61;41.28;96530.03;5069020;28;20187;-69
2021/06/28 07:59:00;;;;;;;5.30;2.10;;;;;;;29.25;40.13;96525.25;5061991;28;20426;-70
2021/06/28 08:01:26;;;;;;;2.53;1.67;;;;;;;29.68;38.89;96518.22;5038594;28;20490;-68
2021/06/28 08:03:51;;;;;;;2.30;2.10;;;;;;;29.81;40.39;96522.06;5051751;28;20670;-68
2021/06/28 08:06:21;;;;;;;2.00;1.90;;;;;;;29.87;41.37;96527.09;5051157;28;20183;-68
2021/06/28 08:08:48;;;;;;;3.73;2.20;;;;;;;29.81;41.98;96522.06;5051974;28;20217;-69
2021/06/28 08:11:14;;;;;;;3.70;2.40;;;;;;;30.11;41.41;96520.84;5052189;28;20434;-68
2021/06/28 08:13:42;;;;;;;5.47;2.10;;;;;;;29.73;42.46;96531.66;5049840;28;20453;-67
2021/06/28 08:16:08;;;;;;;2.40;2.20;;;;;;;29.70;42.44;96524.94;5033359;28;20237;-69
2021/06/28 08:18:34;;;;;;;4.90;2.13;;;;;;;29.48;41.44;96517.44;5049189;28;20982;-69
2021/06/28 08:21:01;;;;;;;4.97;2.07;;;;;;;29.42;40.66;96526.69;5049322;28;20186;-69
2021/06/28 08:23:26;;;;;;;2.37;2.10;;;;;;;30.25;38.82;96517.34;5051385;28;20503;-69
2021/06/28 08:25:52;;;;;;;4.30;2.30;;;;;;;30.58;38.21;96528.16;5051816;28;20547;-68
2021/06/28 08:28:17;;;;;;;2.83;1.90;;;;;;;29.62;39.61;96522.09;5046780;28;20652;-68
2021/06/28 08:30:43;;;;;;;2.17;2.07;;;;;;;29.77;38.98;96518.38;5051899;28;20190;-68
2021/06/28 08:33:09;;;;;;;7.23;2.20;;;;;;;29.54;39.89;96516.25;5050732;28;20210;-68
2021/06/28 08:35:34;;;;;;;2.83;2.43;;;;;;;29.35;40.87;96512.78;5050746;28;20182;-68
2021/06/28 08:38:01;;;;;;;2.60;2.40;;;;;;;30.37;39.12;96506.06;5050851;28;20191;-68
2021/06/28 08:40:26;;;;;;;8.07;2.53;;;;;;;30.77;38.60;96501.81;5034271;28;20551;-69
2021/06/28 08:42:52;;;;;;;9.70;2.20;;;;;;;30.71;37.18;96503.03;5051114;28;20495;-69
2021/06/28 08:45:18;;;;;;;2.23;1.90;;;;;;;31.19;36.65;96509.13;5050865;28;20280;-69
2021/06/28 08:47:44;;;;;;;6.27;2.43;;;;;;;30.63;37.19;96514.53;5050145;28;20830;-68
2021/06/28 08:50:10;;;;;;;2.00;1.90;;;;;;;31.23;35.00;96513.63;5051238;28;20270;-68
2021/06/28 08:52:40;;;;;;;1.90;1.80;;;;;;;30.92;35.56;96516.13;5049927;28;20509;-69
2021/06/28 08:55:07;;;;;;;3.20;2.20;;;;;;;31.24;34.88;96517.16;5049662;28;20459;-68
2021/06/28 08:57:33;;;;;;;1.90;1.80;;;;;;;31.26;34.40;96520.31;5050672;28;20505;-68
2021/06/28 08:59:58;;;;;;;2.40;2.20;;;;;;;29.63;37.18;96524.50;5047033;28;20505;-68
2021/06/28 09:02:24;;;;;;;3.43;1.90;;;;;;;30.44;35.80;96518.09;5050506;28;20205;-68
2021/06/28 09:04:57;;;;;;;2.10;1.90;;;;;;;31.34;34.17;96522.34;5050929;28;20264;-68
2021/06/28 09:07:23;;;;;;;2.40;1.87;;;;;;;31.15;33.16;96527.88;5051108;28;20583;-69
2021/06/28 09:09:49;;;;;;;1.87;1.77;;;;;;;31.47;32.63;96536.13;5051210;28;20552;-68
2021/06/28 09:12:16;;;;;;;1.67;1.57;;;;;;;31.31;33.39;96535.69;5032280;28;20233;-69
2021/06/28 09:14:46;;;;;;;3.67;1.70;;;;;;;31.06;33.93;96543.97;5032665;28;20199;-68
2021/06/28 09:17:30;;;;;;;3.27;1.77;;;;;;;31.43;33.15;96545.97;5050837;28;20425;-69
2021/06/28 09:20:20;;;;;;;4.13;2.23;;;;;;;32.02;32.40;96546.78;5051200;28;20430;-68
2021/06/28 09:22:47;;;;;;;3.60;2.00;;;;;;;32.34;31.57;96546.06;5042594;28;20445;-69
2021/06/28 09:25:36;;;;;;;2.77;2.10;;;;;;;32.99;30.67;96538.41;5049986;28;20496;-68
2021/06/28 09:28:03;;;;;;;3.47;1.87;;;;;;;32.96;31.19;96536.31;5047344;28;20551;-68
2021/06/28 09:30:30;;;;;;;2.73;1.80;;;;;;;32.19;32.06;96544.53;5050695;28;20430;-68
2021/06/28 09:33:00;;;;;;;2.70;1.93;;;;;;;31.90;32.74;96533.00;5050985;28;20450;-68
2021/06/28 09:35:33;;;;;;;2.87;2.10;;;;;;;32.25;32.11;96530.56;5049596;28;20444;-67
2021/06/28 09:38:28;;;;;;;4.27;1.80;;;;;;;31.91;32.97;96528.41;5050475;28;20535;-69
2021/06/28 09:40:54;;;;;;;2.10;1.83;;;;;;;31.61;33.79;96531.50;5051274;28;20940;-69
2021/06/28 09:43:24;;;;;;;1.77;1.60;;;;;;;32.16;32.77;96525.06;5048911;28;20496;-68
2021/06/28 09:45:55;;;;;;;2.33;1.83;;;;;;;32.81;31.09;96522.06;5050782;28;20215;-68
2021/06/28 09:48:22;;;;;;;8.20;2.37;;;;;;;32.59;31.63;96521.00;5032416;28;20444;-69
2021/06/28 09:50:47;;;;;;;3.40;2.10;;;;;;;32.61;32.59;96513.38;5050341;28;20432;-69
2021/06/28 09:53:25;;;;;;;3.13;1.70;;;;;;;31.88;32.38;96518.16;5048577;28;20445;-68
2021/06/28 09:55:50;;;;;;;2.23;2.03;;;;;;;31.97;32.17;96506.28;5050343;28;20556;-70
2021/06/28 09:58:25;;;;;;;5.40;2.00;;;;;;;32.57;31.64;96501.53;5045963;28;20510;-69
2021/06/28 10:00:51;;;;;;;2.00;1.80;;;;;;;33.07;30.39;96505.88;5049639;28;20649;-69
2021/06/28 10:03:34;;;;;;;11.83;2.17;;;;;;;32.41;31.12;96508.47;5050591;28;20441;-70
2021/06/28 10:08:43;;;;;;;7.53;1.77;;;;;;;31.30;32.27;96505.09;5049891;28;20421;-68
2021/06/28 10:11:17;;;;;;;2.20;2.00;;;;;;;32.11;30.69;96502.72;5047885;28;20761;-68
2021/06/28 10:13:52;;;;;;;3.53;1.80;;;;;;;32.76;30.17;96504.00;5048927;28;20812;-69
2021/06/28 10:16:20;;;;;;;2.87;1.70;;;;;;;32.85;29.03;96485.06;5042363;28;20422;-69
2021/06/28 10:18:46;;;;;;;1.80;1.67;;;;;;;33.00;29.35;96488.47;5047623;28;20928;-69
2021/06/28 10:21:12;;;;;;;3.10;1.60;;;;;;;31.94;30.30;96485.22;5046083;28;20517;-68
2021/06/28 10:23:38;;;;;;;1.93;1.60;;;;;;;32.08;30.13;96495.19;5050194;28;20449;-69
2021/06/28 10:26:05;;;;;;;1.70;1.60;;;;;;;33.22;28.92;96491.06;5048214;28;20587;-69
2021/06/28 10:28:30;;;;;;;2.60;1.70;;;;;;;33.73;27.43;96487.91;5040665;28;20436;-69
2021/06/28 10:30:56;;;;;;;1.77;1.57;;;;;;;34.29;26.92;96485.25;5050944;28;20421;-68
2021/06/28 10:33:23;;;;;;;3.10;1.80;;;;;;;34.04;28.28;96488.84;5053866;28;20214;-69
2021/06/28 10:35:48;;;;;;;2.33;1.80;;;;;;;34.15;27.89;96485.44;5052864;28;20183;-69
2021/06/28 10:38:15;;;;;;;1.70;1.60;;;;;;;33.89;28.63;96480.06;5052080;28;20436;-69
2021/06/28 10:40:48;;;;;;;3.07;1.70;;;;;;;33.78;28.86;96476.06;5054003;28;20217;-68
2021/06/28 10:43:39;;;;;;;2.13;1.93;;;;;;;34.39;28.27;96475.94;5053563;28;20449;-68
2021/06/28 10:46:08;;;;;;;1.73;1.63;;;;;;;35.01;26.76;96468.34;5053685;28;20851;-69
2021/06/28 10:48:45;;;;;;;3.53;1.70;;;;;;;34.66;27.37;96471.19;5053757;28;20455;-69
2021/06/28 10:51:11;;;;;;;4.10;2.03;;;;;;;33.70;28.58;96469.50;5052813;28;20481;-67
2021/06/28 10:53:37;;;;;;;2.80;2.00;;;;;;;32.91;29.92;96466.72;5053672;28;20445;-69
2021/06/28 10:56:32;;;;;;;2.90;2.17;;;;;;;33.03;29.89;96463.38;5053426;28;20436;-67
2021/06/28 10:59:02;;;;;;;2.10;2.00;;;;;;;33.59;29.12;96469.03;5043006;28;20656;-67
2021/06/28 11:01:44;;;;;;;3.40;2.10;;;;;;;34.67;27.47;96451.03;5037621;28;20924;-67
2021/06/28 11:04:11;;;;;;;2.20;2.00;;;;;;;34.68;27.64;96455.34;5035221;28;20575;-67
2021/06/28 11:06:44;;;;;;;4.30;2.23;;;;;;;34.10;29.39;96457.63;5053212;28;20425;-68
2021/06/28 11:09:11;;;;;;;3.60;1.73;;;;;;;34.38;28.59;96455.31;5051818;28;20429;-68
2021/06/28 11:11:42;;;;;;;4.07;1.90;;;;;;;34.31;28.46;96446.84;5053094;28;20528;-68
2021/06/28 11:14:17;;;;;;;2.73;2.00;;;;;;;33.97;28.70;96446.63;5053090;28;20437;-68
2021/06/28 11:16:58;;;;;;;4.63;2.17;;;;;;;33.59;29.51;96444.59;5053763;28;20556;-68
2021/06/28 11:19:43;;;;;;;5.77;2.20;;;;;;;33.21;29.91;96446.03;5052301;28;20417;-68
2021/06/28 11:22:26;;;;;;;4.13;1.80;;;;;;;32.81;31.15;96443.41;5061419;28;20413;-67
2021/06/28 11:25:13;;;;;;;2.17;1.97;;;;;;;32.49;30.97;96445.38;5066755;28;20464;-68
2021/06/28 11:27:47;;;;;;;3.37;2.40;;;;;;;32.72;30.89;96432.50;5042270;28;20414;-68
2021/06/28 11:30:13;;;;;;;1.90;1.80;;;;;;;33.96;29.29;96433.38;5052517;28;20659;-68
2021/06/28 11:33:00;;;;;;;2.97;2.00;;;;;;;33.59;29.66;96435.66;5058931;28;20485;-68
2021/06/28 11:35:37;;;;;;;2.70;2.00;;;;;;;33.31;30.07;96427.81;5051791;28;20171;-69
2021/06/28 11:38:24;;;;;;;2.97;1.93;;;;;;;33.42;29.90;96431.84;5067116;28;20492;-69